Portada
METAR-TAF:

METAR-TAF

Aeropuertos :

Platteville, Wisconsin, Estados Unidos

latitud: 42-41-22N, longitud: 090-26-40W, altitud: 312 m

Observación

El informe se hizo hace 34 minutos, a las 18:55 UTC
Viento 6 kt del suroeste con ráfagas de 14 kt
Temperatura 28°C
Humedad 70%
Presión 1023 hPa
Visibilidad: 16.1 km
Nubes dispersas a una altura de 2400 ft
Nubes dispersas a una altura de 6000 ft
Nubes dispersas a una altura de 9000 ft

METAR: KPVB 191855Z AUTO 23006G14KT 10SM SCT024 SCT060 SCT090 28/22 A3020 RMK AO1 T02780215

Hora: 14:29 (19:29 UTC)


TAF: falta

Observaciones y pronósticos meteorológicos de más de 4000 aeropuertos (mensajes METAR y TAF).

Los puntos amarillos y rojos representan las estaciones disponibles.

Ponga el ratón en el punto deseado para ver el nombre de la estación.

Haga clic para ver las observaciones y los pronósticos meteorológicos.

Para cambiar el mapa : haga clic en los botones verdes con una cruz de color negro para hacer un zoom, en el botón verde con un guión para alejar o en las flechas verdes para mapas adyacentes.


METAR-TAF: